METAR* REPORTS - Stations within 60 miles

(*Meteorological Terminal Aviation Routine weather report)

 

KRDG - Reading, Pennsylvania, USA
Distance from station: SE 19mi, 31km
Updated: Sun, 19-Nov-2017 2:54pm EST
Mostly Cloudy
Mostly Cloudy
 Wind from WNW
Wind: WNW 23 mph , 37 km/h, Gust: 30 mph , 48 km/h
Temperature: 46°F , 8°C
Wind Chill: 38°F , 3°C
Dew Point: 30°F , -1°C
Humidity: 53%
Barometer: 29.65 inHg , 1004.1 hPa
Clouds: Mostly Cloudy
Visibility: 10 miles , 16 km
Cloud details: Mostly Cloudy 5000 ft
2017/11/19 19:54 KRDG 191954Z 29020G26KT 10SM BKN050 08/M01 A2965 RMK AO2 PK WND 28030/1900 SLP044 T00831006
KLNS - Lancaster, Pennsylvania, USA
Distance from station: S 33mi, 53km
Updated: Sun, 19-Nov-2017 2:53pm EST
Overcast
Overcast
 Wind from WNW
Wind: WNW 28 mph , 44 km/h, Gust: 37 mph , 59 km/h
Temperature: 46°F , 8°C
Wind Chill: 37°F , 3°C
Dew Point: 28°F , -2°C
Humidity: 50%
Barometer: 29.68 inHg , 1005.1 hPa
Clouds: Overcast
Visibility: 10 miles , 16 km
Cloud details: Overcast 5000 ft
2017/11/19 19:53 KLNS 191953Z 30024G32KT 10SM OVC050 08/M02 A2968 RMK AO2 PK WND 29034/1933 SLP052 T00781022 $
 
KSEG - Selinsgrove, Pennsylvania, USA
Distance from station: WNW 39mi, 62km
Updated: Sun, 19-Nov-2017 2:53pm EST
Overcast
Overcast
 Wind from W
Wind: W 15 mph , 24 km/h, Gust: 23 mph , 37 km/h
Temperature: 45°F , 7°C
Wind Chill: 38°F , 3°C
Dew Point: 28°F , -2°C
Humidity: 53%
Barometer: 29.69 inHg , 1005.4 hPa
Clouds: Overcast
Visibility: 10 miles , 16 km
Cloud details: Few Clouds 4700 ft
Overcast 6000 ft
2017/11/19 19:53 KSEG 191953Z AUTO 28013G20KT 240V310 10SM FEW047 OVC060 07/M02 A2969 RMK AO2 PK WND 30027/1906 SLP055 T00721017 $
KABE - Allentown, Pennsylvania, USA
Distance from station: E 39mi, 63km
Updated: Sun, 19-Nov-2017 2:51pm EST
Few Clouds
Few Clouds
 Wind from WNW
Wind: WNW 20 mph , 31 km/h, Gust: 35 mph , 56 km/h
Temperature: 48°F , 9°C
Wind Chill: 41°F , 5°C
Dew Point: 27°F , -3°C
Humidity: 43%
Barometer: 29.61 inHg , 1002.7 hPa
Clouds: Few Clouds
Visibility: 10 miles , 16 km
Cloud details: Few Clouds 6000 ft
2017/11/19 19:51 KABE 191951Z 30017G30KT 10SM FEW060 09/M03 A2961 RMK AO2 PK WND 28030/1942 SLP025 T00891033
 
KMDT - Middletown, Pennsylvania, USA
Distance from station: SW 40mi, 65km
Updated: Sun, 19-Nov-2017 2:56pm EST
Mostly Cloudy
Mostly Cloudy
 Wind from WNW
Wind: WNW 17 mph , 28 km/h
Temperature: 46°F , 8°C
Wind Chill: 39°F , 4°C
Dew Point: 28°F , -2°C
Humidity: 50%
Barometer: 29.70 inHg , 1005.8 hPa
Clouds: Mostly Cloudy
Visibility: 10 miles , 16 km
Cloud details: Mostly Cloudy 6000 ft
2017/11/19 19:56 KMDT 191956Z 29015KT 10SM BKN060 08/M02 A2970 RMK AO2 PK WND 30029/1857 SLP057 T00781017
KPTW - Pottstown, Pennsylvania, USA
Distance from station: SE 42mi, 67km
Updated: Sun, 19-Nov-2017 2:54pm EST
Mostly Cloudy
Mostly Cloudy
 Wind from WNW
Wind: WNW 17 mph , 28 km/h, Gust: 26 mph , 43 km/h
Temperature: 48°F , 9°C
Wind Chill: 42°F , 6°C
Dew Point: 30°F , -1°C
Humidity: 50%
Barometer: 29.64 inHg , 1003.7 hPa
Clouds: Mostly Cloudy
Visibility: 10 miles , 16 km
Cloud details: Mostly Cloudy 5500 ft
2017/11/19 19:54 KPTW 191954Z AUTO 29015G23KT 10SM BKN055 09/M01 A2964 RMK AO2 PK WND 29027/1907 RAB02E18 SLP036 P0000 T00891011
 
KCXY - Harrisburg, Pennsylvania, USA
Distance from station: SW 43mi, 69km
Updated: Sun, 19-Nov-2017 2:56pm EST
Overcast
Overcast
 Wind from WNW
Wind: WNW 12 mph , 19 km/h, Gust: 21 mph , 33 km/h
Temperature: 46°F , 8°C
Wind Chill: 40°F , 4°C
Dew Point: 27°F , -3°C
Humidity: 46%
Barometer: 29.71 inHg , 1006.1 hPa
Clouds: Overcast
Visibility: 10 miles , 16 km
Cloud details: Overcast 5500 ft
2017/11/19 19:56 KCXY 191956Z 29010G18KT 10SM OVC055 08/M03 A2971 RMK AO2 SLP060 T00781033
KUKT - Quakertown Arp, Pennsylvania, USA
Distance from station: ESE 44mi, 70km
Updated: Sun, 19-Nov-2017 2:55pm EST
Mostly Cloudy
Mostly Cloudy
 Wind from W
Wind: W 8 mph , 13 km/h, Gust: 23 mph , 37 km/h
Temperature: 46°F , 8°C
Wind Chill: 42°F , 6°C
Dew Point: 28°F , -2°C
Humidity: 50%
Barometer: 29.62 inHg , 1003 hPa
Clouds: Mostly Cloudy
Visibility: 10 miles , 16 km
Cloud details: Mostly Cloudy 4800 ft
2017/11/19 19:55 KUKT 191955Z AUTO 28007G20KT 260V320 10SM BKN048 08/M02 A2962 RMK AO1
 
KMQS - Coatesville, Pennsylvania, USA
Distance from station: SSE 45mi, 72km
Updated: Sun, 19-Nov-2017 2:35pm EST
Clear
Clear
 Wind from NW
Wind: NW 24 mph , 39 km/h
Temperature: 46°F , 8°C
Wind Chill: 38°F , 3°C
Dew Point: 28°F , -2°C
Humidity: 50%
Barometer: 29.65 inHg , 1004.1 hPa
Clouds: Clear
Visibility: 10 miles , 16 km
2017/11/19 19:35 KMQS 191935Z AUTO 31021KT 10SM CLR 08/M02 A2965 RMK AO2
KMPO - Mt. Pocono, Pennsylvania, USA
Distance from station: NE 57mi, 92km
Updated: Sun, 19-Nov-2017 3:53am EST
NOT Current
Mist, Overcast
Mist, Overcast
 Wind from SSW
Wind: SSW 17 mph , 28 km/h, Gust: 31 mph , 50 km/h
Temperature: 48°F , 9°C
Wind Chill: 42°F , 6°C
Dew Point: 48°F , 9°C
Humidity: 100%
Barometer: 29.21 inHg , 989.2 hPa
Summary: Mist
Clouds: Overcast
Visibility: 6 miles , 10 km
Cloud details: Overcast 200 ft
2017/11/19 08:53 KMPO 190853Z AUTO 21015G27KT 6SM BR OVC002 09/09 A2921 RMK AO2 PK WND 22033/0803 RAE18B37E48 SLP898 P0001 60007 T00940094 56027
 
KAVP - Avoca/Wilkes B., Pennsylvania, USA
Distance from station: NNE 58mi, 93km
Updated: Sun, 19-Nov-2017 2:54pm EST
Overcast
Overcast
 Wind from NW
Wind: NW 14 mph , 22 km/h
Temperature: 43°F , 6°C
Wind Chill: 36°F , 2°C
Dew Point: 27°F , -3°C
Humidity: 53%
Barometer: 29.61 inHg , 1002.7 hPa
Clouds: Overcast
Visibility: 10 miles , 16 km
Cloud details: Overcast 5000 ft
2017/11/19 19:54 KAVP 191954Z 31012KT 10SM OVC050 06/M03 A2961 RMK AO2 SLP027 T00611033
KTHV - York, Pennsylvania, USA
Distance from station: SW 59mi, 94km
Updated: Sun, 19-Nov-2017 2:53pm EST
Overcast
Overcast
 Wind from WNW
Wind: WNW 17 mph , 28 km/h, Gust: 25 mph , 41 km/h
Temperature: 45°F , 7°C
Wind Chill: 38°F , 3°C
Dew Point: 28°F , -2°C
Humidity: 53%
Barometer: 29.71 inHg , 1006.1 hPa
Clouds: Overcast
Visibility: 10 miles , 16 km
Cloud details: Overcast 5500 ft
2017/11/19 19:53 KTHV 191953Z AUTO 29015G22KT 10SM OVC055 07/M02 A2971 RMK AO2 SLP064 T00671022
 
KDYL - Doylestown, Pennsylvania, USA
Distance from station: ESE 59mi, 95km
Updated: Sun, 19-Nov-2017 2:54pm EST
Mostly Cloudy
Mostly Cloudy
 Wind from WNW
Wind: WNW 20 mph , 31 km/h, Gust: 29 mph , 46 km/h
Temperature: 48°F , 9°C
Wind Chill: 41°F , 5°C
Dew Point: 28°F , -2°C
Humidity: 46%
Barometer: 29.59 inHg , 1002 hPa
Clouds: Mostly Cloudy
Visibility: 10 miles , 16 km
Cloud details: Mostly Cloudy 5500 ft
2017/11/19 19:54 KDYL 191954Z AUTO 29017G25KT 10SM BKN055 09/M02 A2959 RMK AO2 PK WND 29028/1920 SLP022 T00891022
KIPT - Williamsport, Pennsylvania, USA
Distance from station: NW 60mi, 96km
Updated: Sun, 19-Nov-2017 2:54pm EST
Overcast
Overcast
 Wind from W
Wind: W 18 mph , 30 km/h, Gust: 25 mph , 41 km/h
Temperature: 45°F , 7°C
Wind Chill: 37°F , 3°C
Dew Point: 34°F , 1°C
Humidity: 66%
Barometer: 29.66 inHg , 1004.4 hPa
Clouds: Overcast
Visibility: 10 miles , 16 km
Cloud details: Few Clouds 3500 ft
Mostly Cloudy 5500 ft
Overcast 6500 ft
2017/11/19 19:54 KIPT 191954Z 26016G22KT 10SM FEW035 BKN055 OVC065 07/01 A2966 RMK AO2 PK WND 27027/1915 WSHFT 1842 RAB25E43 SLP044 P0000 T00670006